KEWR/EWR METAR and TAF weather

Enter ICAO airport designator
Station Type Date Time Source
KEWR METAR 2020/02/22 05:51 UTC NOAA

KEWR 220551Z 23010KT 10SM CLR M02/M14 A3034 RMK AO2 SLP271 T10221144 10006 21028 58017


Station Type Date Time Source
KEWR Decoded METAR 2020/02/22 05:51 UTC NOAA

NEWARK INTERNATIONAL AIRPORT, NJ, United States (KEWR) 40-41N 74-10W 7M
Feb 22, 2020 - 12:51 AM EST / 2020.02.22 0551 UTC
Wind: from the SW (230 degrees) at 12 MPH (10 KT):0
Visibility: 10 mile(s):0
Sky conditions: clear
Temperature: 28.0 F (-2.2 C)
Windchill: 17 F (-8 C):1
Dew Point: 6.1 F (-14.4 C)
Relative Humidity: 38%
Pressure (altimeter): 30.34 in. Hg (1027 hPa)
Pressure tendency: 0.05 inches (1.7 hPa) lower than three hours ago
ob: KEWR 220551Z 23010KT 10SM CLR M02/M14 A3034 RMK AO2 SLP271 T10221144 10006 21028 58017
cycle: 6

Station Type Date Time Source
KEWR TAF 2020/02/22 06:27 UTC NOAA

TAF KEWR 220524Z 2206/2312 26010KT P6SM SKC
FM221500 26012G19KT P6SM SKC
FM222300 25008KT P6SM SKC
FM230300 25005KT P6SM SKC

Example: see airport list